CDT,Max TemperatureF,Mean TemperatureF,Min TemperatureF,Max Dew PointF,MeanDew PointF,Min DewpointF,Max Humidity, Mean Humidity, Min Humidity, Max Sea Level PressureIn, Mean Sea Level PressureIn, Min Sea Level PressureIn, Max VisibilityMiles, Mean VisibilityMiles, Min VisibilityMiles, Max Wind SpeedMPH, Mean Wind SpeedMPH, Max Gust SpeedMPH,PrecipitationIn, CloudCover, Events, WindDirDegrees
2013-3-1,50,40,30,23,19,12,67,46,27,,,,,,,28,10,,0.00,,,331
2013-3-2,64,47,30,29,25,21,73,45,26,,,,,,,17,8,,0.00,,,264
2013-3-3,73,55,37,36,27,21,63,39,14,,,,,,,16,8,,0.00,,,254
2013-3-4,55,42,30,31,26,21,79,47,34,,,,,,,29,12,,0.00,,,344
2013-3-5,46,32,19,22,15,7,72,53,33,,,,,,,13,9,,0.00,,,283
2013-3-6,62,43,24,24,19,14,66,43,23,,,,,,,26,15,,0.00,,,171
2013-3-7,80,56,33,32,23,19,56,33,11,,,,,,,22,11,,0.00,,,225
2013-3-8,73,58,44,46,33,24,75,43,19,,,,,,,62,13,,0.00,,,185
2013-3-9,61,46,30,38,29,19,73,52,20,,,,,,,33,15,,0.00,,,243
2013-3-10,37,30,23,24,16,11,76,56,39,,,,,,,34,23,,0.00,,,327
2013-3-11,61,42,23,28,22,14,72,47,23,,,,,,,14,8,,0.00,,,304
2013-3-12,51,40,30,27,23,18,82,54,32,,,,,,,15,10,,0.00,,,13
2013-3-13,66,50,33,35,27,19,61,45,27,,,,,,,23,9,,0.00,,,186
2013-3-14,73,56,39,33,28,23,51,33,18,,,,,,,18,10,,0.00,,,295
2013-3-15,82,65,48,32,25,21,40,24,12,,,,,,,13,9,,0.00,,,237
2013-3-16,64,50,36,33,26,19,65,44,19,,,,,,,22,12,,0.00,,,21
2013-3-17,62,45,28,33,26,19,72,54,33,,,,,,,25,8,,0.00,,,107
2013-3-18,54,41,28,31,19,14,65,43,21,,,,,,,21,9,,0.00,,,349
2013-3-19,53,40,28,27,17,8,67,41,19,,,,,,,15,8,,0.00,,,68
2013-3-20,60,42,24,27,17,7,54,38,23,,,,,,,21,8,,0.00,,,188
2013-3-21,61,48,36,33,27,20,65,47,33,,,,,,,20,10,,0.00,,,41
2013-3-22,55,40,25,32,25,19,85,58,28,,,,,,,22,8,,0.00,,,60
2013-3-23,39,30,21,30,23,11,89,73,53,,,,,,,24,17,,0.00,,,77
2013-3-24,35,25,15,19,13,5,75,59,42,,,,,,,17,11,,0.00,,,330
2013-3-25,39,28,17,15,12,7,75,52,29,,,,,,,15,8,,0.00,,,340
2013-3-26,61,40,19,21,15,7,65,40,20,,,,,,,24,10,,0.00,,,179
2013-3-27,62,48,35,27,22,16,57,37,25,,,,,,,18,12,,0.00,,,360
2013-3-28,66,50,33,39,31,23,67,51,35,,,,,,,9,6,,0.00,,,47
2013-3-29,70,54,39,47,41,34,83,63,42,,,,,,,14,7,,0.05,,,98
2013-3-30,73,58,44,44,36,29,83,49,20,,,,,,,24,8,,0.00,,,317
2013-3-31,66,54,41,42,34,3,83,54,8,,,,,,,93,10,,0.00,,,341